sensor_id;sensor_type;location;lat;lon;timestamp;P1;durP1;ratioP1;P2;durP2;ratioP2
59239;SDS011;45010;53.640;10.578;2023-08-31T00:02:53;3.10;;;2.17;;
59239;SDS011;45010;53.640;10.578;2023-08-31T00:05:53;3.40;;;1.80;;
59239;SDS011;45010;53.640;10.578;2023-08-31T00:08:53;2.08;;;1.73;;
59239;SDS011;45010;53.640;10.578;2023-08-31T00:11:54;3.08;;;1.35;;
59239;SDS011;45010;53.640;10.578;2023-08-31T00:14:54;2.25;;;1.70;;
59239;SDS011;45010;53.640;10.578;2023-08-31T00:17:55;3.22;;;2.08;;
59239;SDS011;45010;53.640;10.578;2023-08-31T00:20:55;2.00;;;1.80;;
59239;SDS011;45010;53.640;10.578;2023-08-31T00:23:55;2.35;;;1.70;;
59239;SDS011;45010;53.640;10.578;2023-08-31T00:26:56;2.00;;;1.73;;
59239;SDS011;45010;53.640;10.578;2023-08-31T00:29:56;1.80;;;1.70;;
59239;SDS011;45010;53.640;10.578;2023-08-31T00:32:58;2.67;;;1.55;;
59239;SDS011;45010;53.640;10.578;2023-08-31T00:36:01;2.00;;;1.60;;
59239;SDS011;45010;53.640;10.578;2023-08-31T00:39:06;2.50;;;1.60;;
59239;SDS011;45010;53.640;10.578;2023-08-31T00:42:07;1.92;;;1.55;;
59239;SDS011;45010;53.640;10.578;2023-08-31T00:45:08;2.25;;;1.70;;
59239;SDS011;45010;53.640;10.578;2023-08-31T00:48:08;2.22;;;1.40;;
59239;SDS011;45010;53.640;10.578;2023-08-31T00:51:09;2.20;;;1.80;;
59239;SDS011;45010;53.640;10.578;2023-08-31T00:54:11;2.13;;;1.50;;
59239;SDS011;45010;53.640;10.578;2023-08-31T00:57:11;3.47;;;1.75;;
59239;SDS011;45010;53.640;10.578;2023-08-31T01:00:11;1.63;;;1.48;;
59239;SDS011;45010;53.640;10.578;2023-08-31T01:03:35;2.05;;;1.65;;
59239;SDS011;45010;53.640;10.578;2023-08-31T01:06:54;1.70;;;1.50;;
59239;SDS011;45010;53.640;10.578;2023-08-31T01:13:57;2.05;;;1.63;;
59239;SDS011;45010;53.640;10.578;2023-08-31T01:17:04;2.08;;;1.70;;
59239;SDS011;45010;53.640;10.578;2023-08-31T01:20:07;1.73;;;1.63;;
59239;SDS011;45010;53.640;10.578;2023-08-31T01:23:10;2.83;;;1.70;;
59239;SDS011;45010;53.640;10.578;2023-08-31T01:26:13;2.55;;;1.63;;
59239;SDS011;45010;53.640;10.578;2023-08-31T01:29:14;2.50;;;1.60;;
59239;SDS011;45010;53.640;10.578;2023-08-31T01:32:14;1.60;;;1.50;;
59239;SDS011;45010;53.640;10.578;2023-08-31T01:35:16;1.40;;;1.30;;
59239;SDS011;45010;53.640;10.578;2023-08-31T01:38:18;1.95;;;1.48;;
59239;SDS011;45010;53.640;10.578;2023-08-31T01:41:25;2.05;;;1.90;;
59239;SDS011;45010;53.640;10.578;2023-08-31T01:44:28;2.17;;;1.38;;
59239;SDS011;45010;53.640;10.578;2023-08-31T01:47:32;1.90;;;1.80;;
59239;SDS011;45010;53.640;10.578;2023-08-31T01:50:33;1.52;;;1.42;;
59239;SDS011;45010;53.640;10.578;2023-08-31T01:53:33;2.10;;;1.73;;
59239;SDS011;45010;53.640;10.578;2023-08-31T01:56:34;1.58;;;1.40;;
59239;SDS011;45010;53.640;10.578;2023-08-31T01:59:35;1.67;;;1.52;;
59239;SDS011;45010;53.640;10.578;2023-08-31T02:02:35;1.90;;;1.70;;
59239;SDS011;45010;53.640;10.578;2023-08-31T02:05:35;1.80;;;1.70;;
59239;SDS011;45010;53.640;10.578;2023-08-31T02:08:36;1.60;;;1.50;;
59239;SDS011;45010;53.640;10.578;2023-08-31T02:11:36;1.70;;;1.60;;
59239;SDS011;45010;53.640;10.578;2023-08-31T02:14:38;2.05;;;1.85;;
59239;SDS011;45010;53.640;10.578;2023-08-31T02:17:38;1.58;;;1.48;;
59239;SDS011;45010;53.640;10.578;2023-08-31T02:20:39;1.70;;;1.60;;
59239;SDS011;45010;53.640;10.578;2023-08-31T02:23:39;1.98;;;1.67;;
59239;SDS011;45010;53.640;10.578;2023-08-31T02:26:39;2.15;;;1.63;;
59239;SDS011;45010;53.640;10.578;2023-08-31T02:29:40;1.58;;;1.42;;
59239;SDS011;45010;53.640;10.578;2023-08-31T02:32:40;2.90;;;1.55;;
59239;SDS011;45010;53.640;10.578;2023-08-31T02:35:40;2.58;;;1.80;;
59239;SDS011;45010;53.640;10.578;2023-08-31T02:38:41;2.63;;;1.50;;
59239;SDS011;45010;53.640;10.578;2023-08-31T02:41:41;2.30;;;1.60;;
59239;SDS011;45010;53.640;10.578;2023-08-31T02:44:41;1.80;;;1.70;;
59239;SDS011;45010;53.640;10.578;2023-08-31T02:47:42;1.80;;;1.65;;
59239;SDS011;45010;53.640;10.578;2023-08-31T02:50:42;1.60;;;1.40;;
59239;SDS011;45010;53.640;10.578;2023-08-31T02:53:42;2.15;;;1.95;;
59239;SDS011;45010;53.640;10.578;2023-08-31T02:56:43;1.88;;;1.67;;
59239;SDS011;45010;53.640;10.578;2023-08-31T02:59:43;2.28;;;1.70;;
59239;SDS011;45010;53.640;10.578;2023-08-31T03:02:43;2.72;;;1.73;;
59239;SDS011;45010;53.640;10.578;2023-08-31T03:05:44;2.40;;;1.77;;
59239;SDS011;45010;53.640;10.578;2023-08-31T03:08:45;2.03;;;1.70;;
59239;SDS011;45010;53.640;10.578;2023-08-31T03:11:45;2.20;;;2.00;;
59239;SDS011;45010;53.640;10.578;2023-08-31T03:14:45;1.85;;;1.63;;
59239;SDS011;45010;53.640;10.578;2023-08-31T03:17:46;1.70;;;1.60;;
59239;SDS011;45010;53.640;10.578;2023-08-31T03:20:46;1.50;;;1.40;;
59239;SDS011;45010;53.640;10.578;2023-08-31T03:23:46;1.83;;;1.73;;
59239;SDS011;45010;53.640;10.578;2023-08-31T03:26:47;1.95;;;1.75;;
59239;SDS011;45010;53.640;10.578;2023-08-31T03:29:47;1.60;;;1.50;;
59239;SDS011;45010;53.640;10.578;2023-08-31T03:32:47;1.80;;;1.40;;
59239;SDS011;45010;53.640;10.578;2023-08-31T03:35:47;2.35;;;1.77;;
59239;SDS011;45010;53.640;10.578;2023-08-31T03:38:48;1.70;;;1.60;;
59239;SDS011;45010;53.640;10.578;2023-08-31T03:41:48;2.63;;;1.70;;
59239;SDS011;45010;53.640;10.578;2023-08-31T03:44:49;1.40;;;1.30;;
59239;SDS011;45010;53.640;10.578;2023-08-31T03:47:49;1.85;;;1.75;;
59239;SDS011;45010;53.640;10.578;2023-08-31T03:50:52;1.75;;;1.65;;
59239;SDS011;45010;53.640;10.578;2023-08-31T03:53:53;1.73;;;1.63;;
59239;SDS011;45010;53.640;10.578;2023-08-31T03:56:56;1.70;;;1.60;;
59239;SDS011;45010;53.640;10.578;2023-08-31T03:59:56;1.40;;;1.30;;
59239;SDS011;45010;53.640;10.578;2023-08-31T04:02:56;1.73;;;1.63;;
59239;SDS011;45010;53.640;10.578;2023-08-31T04:05:57;1.67;;;1.50;;
59239;SDS011;45010;53.640;10.578;2023-08-31T04:08:57;1.50;;;1.40;;
59239;SDS011;45010;53.640;10.578;2023-08-31T04:11:58;1.83;;;1.73;;
59239;SDS011;45010;53.640;10.578;2023-08-31T04:14:58;1.40;;;1.25;;
59239;SDS011;45010;53.640;10.578;2023-08-31T04:17:58;2.25;;;1.60;;
59239;SDS011;45010;53.640;10.578;2023-08-31T04:20:59;1.80;;;1.52;;
59239;SDS011;45010;53.640;10.578;2023-08-31T04:24:01;1.40;;;1.30;;
59239;SDS011;45010;53.640;10.578;2023-08-31T04:27:02;1.48;;;1.38;;
59239;SDS011;45010;53.640;10.578;2023-08-31T04:30:03;1.33;;;1.23;;
59239;SDS011;45010;53.640;10.578;2023-08-31T04:33:04;1.40;;;1.30;;
59239;SDS011;45010;53.640;10.578;2023-08-31T04:36:04;1.65;;;1.55;;
59239;SDS011;45010;53.640;10.578;2023-08-31T04:39:05;1.42;;;1.33;;
59239;SDS011;45010;53.640;10.578;2023-08-31T04:42:05;1.40;;;1.30;;
59239;SDS011;45010;53.640;10.578;2023-08-31T04:45:06;1.77;;;1.50;;
59239;SDS011;45010;53.640;10.578;2023-08-31T04:48:07;1.85;;;1.38;;
59239;SDS011;45010;53.640;10.578;2023-08-31T04:51:09;2.10;;;1.50;;
59239;SDS011;45010;53.640;10.578;2023-08-31T04:54:26;2.20;;;1.50;;
59239;SDS011;45010;53.640;10.578;2023-08-31T04:57:26;2.45;;;1.40;;
59239;SDS011;45010;53.640;10.578;2023-08-31T05:00:27;1.63;;;1.48;;
59239;SDS011;45010;53.640;10.578;2023-08-31T05:03:28;2.67;;;1.52;;
59239;SDS011;45010;53.640;10.578;2023-08-31T05:06:28;4.22;;;1.55;;
59239;SDS011;45010;53.640;10.578;2023-08-31T05:09:28;1.75;;;1.35;;
59239;SDS011;45010;53.640;10.578;2023-08-31T05:12:32;1.80;;;1.17;;
59239;SDS011;45010;53.640;10.578;2023-08-31T05:15:32;2.58;;;1.08;;
59239;SDS011;45010;53.640;10.578;2023-08-31T05:18:33;2.45;;;1.25;;
59239;SDS011;45010;53.640;10.578;2023-08-31T05:21:34;1.50;;;1.40;;
59239;SDS011;45010;53.640;10.578;2023-08-31T05:24:34;1.33;;;1.23;;
59239;SDS011;45010;53.640;10.578;2023-08-31T05:27:35;2.42;;;1.45;;
59239;SDS011;45010;53.640;10.578;2023-08-31T05:30:35;1.42;;;1.17;;
59239;SDS011;45010;53.640;10.578;2023-08-31T05:33:35;1.55;;;1.23;;
59239;SDS011;45010;53.640;10.578;2023-08-31T05:36:36;1.90;;;1.35;;
59239;SDS011;45010;53.640;10.578;2023-08-31T05:39:36;1.48;;;1.30;;
59239;SDS011;45010;53.640;10.578;2023-08-31T05:42:37;2.20;;;1.67;;
59239;SDS011;45010;53.640;10.578;2023-08-31T05:45:37;3.80;;;1.40;;
59239;SDS011;45010;53.640;10.578;2023-08-31T05:48:38;1.98;;;1.10;;
59239;SDS011;45010;53.640;10.578;2023-08-31T05:51:38;1.63;;;1.08;;
59239;SDS011;45010;53.640;10.578;2023-08-31T05:54:38;1.48;;;1.00;;
59239;SDS011;45010;53.640;10.578;2023-08-31T05:57:39;1.95;;;1.10;;
59239;SDS011;45010;53.640;10.578;2023-08-31T06:00:39;1.10;;;1.00;;
59239;SDS011;45010;53.640;10.578;2023-08-31T06:03:40;1.23;;;1.05;;
59239;SDS011;45010;53.640;10.578;2023-08-31T06:06:40;1.08;;;0.95;;
59239;SDS011;45010;53.640;10.578;2023-08-31T06:09:40;3.42;;;1.02;;
59239;SDS011;45010;53.640;10.578;2023-08-31T06:12:40;1.20;;;1.10;;
59239;SDS011;45010;53.640;10.578;2023-08-31T06:15:41;1.85;;;1.15;;
59239;SDS011;45010;53.640;10.578;2023-08-31T06:18:41;5.50;;;1.45;;
59239;SDS011;45010;53.640;10.578;2023-08-31T06:21:42;2.63;;;1.10;;
59239;SDS011;45010;53.640;10.578;2023-08-31T06:24:42;1.60;;;1.10;;
59239;SDS011;45010;53.640;10.578;2023-08-31T06:27:42;2.05;;;0.75;;
59239;SDS011;45010;53.640;10.578;2023-08-31T06:30:43;5.00;;;1.13;;
59239;SDS011;45010;53.640;10.578;2023-08-31T06:33:47;2.92;;;1.05;;
59239;SDS011;45010;53.640;10.578;2023-08-31T06:36:47;3.35;;;1.25;;
59239;SDS011;45010;53.640;10.578;2023-08-31T06:39:48;8.95;;;1.75;;
59239;SDS011;45010;53.640;10.578;2023-08-31T06:42:48;1.88;;;0.98;;
59239;SDS011;45010;53.640;10.578;2023-08-31T06:45:48;3.97;;;1.45;;
59239;SDS011;45010;53.640;10.578;2023-08-31T06:48:49;6.60;;;1.40;;
59239;SDS011;45010;53.640;10.578;2023-08-31T06:51:49;6.22;;;1.30;;
59239;SDS011;45010;53.640;10.578;2023-08-31T06:54:49;3.65;;;1.30;;
59239;SDS011;45010;53.640;10.578;2023-08-31T06:57:50;1.60;;;1.10;;
59239;SDS011;45010;53.640;10.578;2023-08-31T07:00:50;1.98;;;1.00;;
59239;SDS011;45010;53.640;10.578;2023-08-31T07:03:50;2.42;;;1.05;;
59239;SDS011;45010;53.640;10.578;2023-08-31T07:06:51;3.13;;;1.20;;
59239;SDS011;45010;53.640;10.578;2023-08-31T07:09:52;4.63;;;1.15;;
59239;SDS011;45010;53.640;10.578;2023-08-31T07:12:54;4.90;;;1.38;;
59239;SDS011;45010;53.640;10.578;2023-08-31T07:15:55;2.17;;;1.35;;
59239;SDS011;45010;53.640;10.578;2023-08-31T07:18:55;4.25;;;1.48;;
59239;SDS011;45010;53.640;10.578;2023-08-31T07:21:55;3.38;;;0.90;;
59239;SDS011;45010;53.640;10.578;2023-08-31T07:24:56;4.32;;;1.25;;
59239;SDS011;45010;53.640;10.578;2023-08-31T07:27:56;1.85;;;1.10;;
59239;SDS011;45010;53.640;10.578;2023-08-31T07:31:06;2.83;;;1.33;;
59239;SDS011;45010;53.640;10.578;2023-08-31T07:34:06;2.90;;;0.90;;
59239;SDS011;45010;53.640;10.578;2023-08-31T07:37:07;3.55;;;1.10;;
59239;SDS011;45010;53.640;10.578;2023-08-31T07:40:08;5.28;;;1.08;;
59239;SDS011;45010;53.640;10.578;2023-08-31T07:43:09;5.53;;;1.10;;
59239;SDS011;45010;53.640;10.578;2023-08-31T07:46:10;7.03;;;1.48;;
59239;SDS011;45010;53.640;10.578;2023-08-31T07:49:10;5.00;;;1.38;;
59239;SDS011;45010;53.640;10.578;2023-08-31T07:52:10;5.82;;;1.70;;
59239;SDS011;45010;53.640;10.578;2023-08-31T07:55:11;9.30;;;3.00;;
59239;SDS011;45010;53.640;10.578;2023-08-31T07:58:11;8.77;;;1.67;;
59239;SDS011;45010;53.640;10.578;2023-08-31T08:01:11;6.68;;;1.73;;
59239;SDS011;45010;53.640;10.578;2023-08-31T08:04:12;8.82;;;1.50;;
59239;SDS011;45010;53.640;10.578;2023-08-31T08:07:12;7.22;;;1.65;;
59239;SDS011;45010;53.640;10.578;2023-08-31T08:10:13;6.13;;;1.20;;
59239;SDS011;45010;53.640;10.578;2023-08-31T08:13:14;4.03;;;1.10;;
59239;SDS011;45010;53.640;10.578;2023-08-31T08:16:15;8.32;;;1.90;;
59239;SDS011;45010;53.640;10.578;2023-08-31T08:19:20;5.40;;;1.15;;
59239;SDS011;45010;53.640;10.578;2023-08-31T08:22:22;4.93;;;1.10;;
59239;SDS011;45010;53.640;10.578;2023-08-31T08:25:24;5.25;;;1.45;;
59239;SDS011;45010;53.640;10.578;2023-08-31T08:28:25;5.75;;;1.40;;
59239;SDS011;45010;53.640;10.578;2023-08-31T08:31:26;4.03;;;1.60;;
59239;SDS011;45010;53.640;10.578;2023-08-31T08:34:26;4.88;;;1.17;;
59239;SDS011;45010;53.640;10.578;2023-08-31T08:37:27;2.30;;;0.88;;
59239;SDS011;45010;53.640;10.578;2023-08-31T08:40:31;2.72;;;0.88;;
59239;SDS011;45010;53.640;10.578;2023-08-31T08:43:33;2.53;;;0.93;;
59239;SDS011;45010;53.640;10.578;2023-08-31T08:46:34;4.05;;;1.20;;
59239;SDS011;45010;53.640;10.578;2023-08-31T08:49:35;2.05;;;1.05;;
59239;SDS011;45010;53.640;10.578;2023-08-31T08:52:36;3.08;;;1.05;;
59239;SDS011;45010;53.640;10.578;2023-08-31T08:55:37;1.95;;;1.00;;
59239;SDS011;45010;53.640;10.578;2023-08-31T08:58:38;1.83;;;0.73;;
59239;SDS011;45010;53.640;10.578;2023-08-31T09:01:38;2.78;;;1.00;;
59239;SDS011;45010;53.640;10.578;2023-08-31T09:04:39;2.97;;;0.80;;
59239;SDS011;45010;53.640;10.578;2023-08-31T09:07:59;3.55;;;1.30;;
59239;SDS011;45010;53.640;10.578;2023-08-31T09:11:00;3.05;;;1.75;;
59239;SDS011;45010;53.640;10.578;2023-08-31T09:14:13;3.25;;;1.40;;
59239;SDS011;45010;53.640;10.578;2023-08-31T09:17:21;3.53;;;1.95;;
59239;SDS011;45010;53.640;10.578;2023-08-31T09:20:23;4.72;;;1.77;;
59239;SDS011;45010;53.640;10.578;2023-08-31T09:23:25;4.28;;;1.50;;
59239;SDS011;45010;53.640;10.578;2023-08-31T09:26:25;4.03;;;1.40;;
59239;SDS011;45010;53.640;10.578;2023-08-31T09:29:25;1.95;;;1.10;;
59239;SDS011;45010;53.640;10.578;2023-08-31T09:32:26;1.48;;;1.00;;
59239;SDS011;45010;53.640;10.578;2023-08-31T09:35:26;3.35;;;1.17;;
59239;SDS011;45010;53.640;10.578;2023-08-31T09:38:27;2.30;;;1.40;;
59239;SDS011;45010;53.640;10.578;2023-08-31T09:41:27;2.60;;;1.10;;
59239;SDS011;45010;53.640;10.578;2023-08-31T09:44:27;2.88;;;1.17;;
59239;SDS011;45010;53.640;10.578;2023-08-31T09:47:28;3.72;;;1.13;;
59239;SDS011;45010;53.640;10.578;2023-08-31T09:50:29;2.65;;;1.25;;
59239;SDS011;45010;53.640;10.578;2023-08-31T09:53:34;2.85;;;1.13;;
59239;SDS011;45010;53.640;10.578;2023-08-31T09:56:36;2.67;;;1.13;;
59239;SDS011;45010;53.640;10.578;2023-08-31T09:59:37;3.58;;;1.00;;
59239;SDS011;45010;53.640;10.578;2023-08-31T10:02:39;2.63;;;1.20;;
59239;SDS011;45010;53.640;10.578;2023-08-31T10:05:39;2.42;;;1.05;;
59239;SDS011;45010;53.640;10.578;2023-08-31T10:08:40;2.88;;;1.00;;
59239;SDS011;45010;53.640;10.578;2023-08-31T10:11:41;3.10;;;1.02;;
59239;SDS011;45010;53.640;10.578;2023-08-31T10:14:42;3.00;;;1.00;;
59239;SDS011;45010;53.640;10.578;2023-08-31T10:17:46;1.90;;;0.80;;
59239;SDS011;45010;53.640;10.578;2023-08-31T10:20:46;1.38;;;0.73;;
59239;SDS011;45010;53.640;10.578;2023-08-31T10:23:47;2.20;;;0.88;;
59239;SDS011;45010;53.640;10.578;2023-08-31T10:26:48;3.47;;;1.40;;
59239;SDS011;45010;53.640;10.578;2023-08-31T10:29:49;3.97;;;1.10;;
59239;SDS011;45010;53.640;10.578;2023-08-31T10:36:17;5.25;;;1.05;;
59239;SDS011;45010;53.640;10.578;2023-08-31T10:39:19;4.55;;;0.93;;
59239;SDS011;45010;53.640;10.578;2023-08-31T10:42:19;2.75;;;1.05;;
59239;SDS011;45010;53.640;10.578;2023-08-31T10:45:23;3.75;;;1.15;;
59239;SDS011;45010;53.640;10.578;2023-08-31T10:48:23;3.45;;;1.38;;
59239;SDS011;45010;53.640;10.578;2023-08-31T10:51:34;3.53;;;1.10;;
59239;SDS011;45010;53.640;10.578;2023-08-31T10:54:35;3.20;;;1.08;;
59239;SDS011;45010;53.640;10.578;2023-08-31T10:57:35;3.63;;;1.00;;
59239;SDS011;45010;53.640;10.578;2023-08-31T11:00:46;3.92;;;1.38;;
59239;SDS011;45010;53.640;10.578;2023-08-31T11:03:59;3.42;;;0.90;;
59239;SDS011;45010;53.640;10.578;2023-08-31T11:07:18;2.22;;;1.00;;
59239;SDS011;45010;53.640;10.578;2023-08-31T11:13:22;2.72;;;1.00;;
59239;SDS011;45010;53.640;10.578;2023-08-31T11:16:23;5.03;;;0.85;;
59239;SDS011;45010;53.640;10.578;2023-08-31T11:19:23;5.45;;;1.20;;
59239;SDS011;45010;53.640;10.578;2023-08-31T11:22:24;2.75;;;0.73;;
59239;SDS011;45010;53.640;10.578;2023-08-31T11:25:25;4.28;;;0.93;;
59239;SDS011;45010;53.640;10.578;2023-08-31T11:28:25;1.20;;;0.52;;
59239;SDS011;45010;53.640;10.578;2023-08-31T11:31:32;5.28;;;0.80;;
59239;SDS011;45010;53.640;10.578;2023-08-31T11:34:32;1.88;;;0.68;;
59239;SDS011;45010;53.640;10.578;2023-08-31T11:37:32;1.90;;;0.70;;
59239;SDS011;45010;53.640;10.578;2023-08-31T11:40:33;2.17;;;0.65;;
59239;SDS011;45010;53.640;10.578;2023-08-31T11:43:33;2.15;;;0.70;;
59239;SDS011;45010;53.640;10.578;2023-08-31T11:46:34;3.28;;;0.90;;
59239;SDS011;45010;53.640;10.578;2023-08-31T11:49:36;3.25;;;0.90;;
59239;SDS011;45010;53.640;10.578;2023-08-31T11:52:37;3.25;;;0.60;;
59239;SDS011;45010;53.640;10.578;2023-08-31T11:55:40;2.13;;;0.60;;
59239;SDS011;45010;53.640;10.578;2023-08-31T11:58:52;5.22;;;0.85;;
59239;SDS011;45010;53.640;10.578;2023-08-31T12:01:54;4.97;;;0.80;;
59239;SDS011;45010;53.640;10.578;2023-08-31T12:04:56;2.97;;;0.65;;
59239;SDS011;45010;53.640;10.578;2023-08-31T12:07:56;4.00;;;1.30;;
59239;SDS011;45010;53.640;10.578;2023-08-31T12:10:58;1.85;;;0.88;;
59239;SDS011;45010;53.640;10.578;2023-08-31T12:14:01;1.50;;;0.80;;
59239;SDS011;45010;53.640;10.578;2023-08-31T12:17:05;1.30;;;0.68;;
59239;SDS011;45010;53.640;10.578;2023-08-31T12:20:06;1.48;;;0.75;;
59239;SDS011;45010;53.640;10.578;2023-08-31T12:23:07;1.52;;;0.90;;
59239;SDS011;45010;53.640;10.578;2023-08-31T12:26:09;1.88;;;0.70;;
59239;SDS011;45010;53.640;10.578;2023-08-31T12:29:10;2.55;;;0.70;;
59239;SDS011;45010;53.640;10.578;2023-08-31T12:32:10;2.42;;;0.80;;
59239;SDS011;45010;53.640;10.578;2023-08-31T12:35:10;2.45;;;0.82;;
59239;SDS011;45010;53.640;10.578;2023-08-31T12:38:11;2.05;;;0.65;;
59239;SDS011;45010;53.640;10.578;2023-08-31T12:41:12;7.85;;;0.98;;
59239;SDS011;45010;53.640;10.578;2023-08-31T12:44:13;2.63;;;0.70;;
59239;SDS011;45010;53.640;10.578;2023-08-31T12:47:13;3.75;;;0.70;;
59239;SDS011;45010;53.640;10.578;2023-08-31T12:50:15;3.15;;;0.80;;
59239;SDS011;45010;53.640;10.578;2023-08-31T12:53:15;2.42;;;0.70;;
59239;SDS011;45010;53.640;10.578;2023-08-31T12:56:16;1.75;;;0.90;;
59239;SDS011;45010;53.640;10.578;2023-08-31T12:59:21;1.08;;;0.73;;
59239;SDS011;45010;53.640;10.578;2023-08-31T13:02:21;1.45;;;0.80;;
59239;SDS011;45010;53.640;10.578;2023-08-31T13:05:22;1.20;;;0.60;;
59239;SDS011;45010;53.640;10.578;2023-08-31T13:08:22;1.55;;;0.60;;
59239;SDS011;45010;53.640;10.578;2023-08-31T13:11:23;1.17;;;0.60;;
59239;SDS011;45010;53.640;10.578;2023-08-31T13:14:23;1.20;;;0.60;;
59239;SDS011;45010;53.640;10.578;2023-08-31T13:17:24;1.15;;;0.52;;
59239;SDS011;45010;53.640;10.578;2023-08-31T13:20:26;1.20;;;0.68;;
59239;SDS011;45010;53.640;10.578;2023-08-31T13:23:27;3.45;;;0.70;;
59239;SDS011;45010;53.640;10.578;2023-08-31T13:26:28;3.13;;;0.68;;
59239;SDS011;45010;53.640;10.578;2023-08-31T13:29:29;2.47;;;0.60;;
59239;SDS011;45010;53.640;10.578;2023-08-31T13:32:30;2.35;;;0.75;;
59239;SDS011;45010;53.640;10.578;2023-08-31T13:35:30;1.10;;;0.70;;
59239;SDS011;45010;53.640;10.578;2023-08-31T13:38:31;1.50;;;0.77;;
59239;SDS011;45010;53.640;10.578;2023-08-31T13:41:31;3.05;;;0.80;;
59239;SDS011;45010;53.640;10.578;2023-08-31T13:44:31;2.50;;;0.80;;
59239;SDS011;45010;53.640;10.578;2023-08-31T13:47:32;2.85;;;0.60;;
59239;SDS011;45010;53.640;10.578;2023-08-31T13:50:32;3.63;;;0.65;;
59239;SDS011;45010;53.640;10.578;2023-08-31T13:53:32;2.58;;;0.60;;
59239;SDS011;45010;53.640;10.578;2023-08-31T13:56:33;2.00;;;0.63;;
59239;SDS011;45010;53.640;10.578;2023-08-31T13:59:34;2.70;;;0.70;;
59239;SDS011;45010;53.640;10.578;2023-08-31T14:02:35;7.40;;;0.80;;
59239;SDS011;45010;53.640;10.578;2023-08-31T14:05:37;2.55;;;0.77;;
59239;SDS011;45010;53.640;10.578;2023-08-31T14:08:37;2.60;;;0.60;;
59239;SDS011;45010;53.640;10.578;2023-08-31T14:11:37;2.50;;;0.80;;
59239;SDS011;45010;53.640;10.578;2023-08-31T14:14:38;1.35;;;0.52;;
59239;SDS011;45010;53.640;10.578;2023-08-31T14:17:39;2.25;;;0.60;;
59239;SDS011;45010;53.640;10.578;2023-08-31T14:20:39;2.00;;;0.60;;
59239;SDS011;45010;53.640;10.578;2023-08-31T14:23:40;2.35;;;0.70;;
59239;SDS011;45010;53.640;10.578;2023-08-31T14:26:40;0.73;;;0.50;;
59239;SDS011;45010;53.640;10.578;2023-08-31T14:29:40;0.47;;;0.40;;
59239;SDS011;45010;53.640;10.578;2023-08-31T14:32:41;0.88;;;0.50;;
59239;SDS011;45010;53.640;10.578;2023-08-31T14:35:41;0.65;;;0.40;;
59239;SDS011;45010;53.640;10.578;2023-08-31T14:38:41;3.35;;;0.55;;
59239;SDS011;45010;53.640;10.578;2023-08-31T14:41:42;1.40;;;0.50;;
59239;SDS011;45010;53.640;10.578;2023-08-31T14:44:43;1.45;;;0.50;;
59239;SDS011;45010;53.640;10.578;2023-08-31T14:47:44;0.52;;;0.40;;
59239;SDS011;45010;53.640;10.578;2023-08-31T14:50:44;2.13;;;0.55;;
59239;SDS011;45010;53.640;10.578;2023-08-31T14:53:44;2.35;;;0.50;;
59239;SDS011;45010;53.640;10.578;2023-08-31T14:56:45;1.25;;;0.50;;
59239;SDS011;45010;53.640;10.578;2023-08-31T14:59:45;0.57;;;0.57;;
59239;SDS011;45010;53.640;10.578;2023-08-31T15:02:46;0.70;;;0.50;;
59239;SDS011;45010;53.640;10.578;2023-08-31T15:05:48;1.25;;;0.40;;
59239;SDS011;45010;53.640;10.578;2023-08-31T15:08:49;1.25;;;0.43;;
59239;SDS011;45010;53.640;10.578;2023-08-31T15:11:49;0.90;;;0.40;;
59239;SDS011;45010;53.640;10.578;2023-08-31T15:14:50;1.60;;;0.90;;
59239;SDS011;45010;53.640;10.578;2023-08-31T15:17:50;3.70;;;0.47;;
59239;SDS011;45010;53.640;10.578;2023-08-31T15:20:50;1.25;;;0.50;;
59239;SDS011;45010;53.640;10.578;2023-08-31T15:23:51;3.58;;;0.60;;
59239;SDS011;45010;53.640;10.578;2023-08-31T15:26:51;1.85;;;0.55;;
59239;SDS011;45010;53.640;10.578;2023-08-31T15:29:52;1.02;;;0.73;;
59239;SDS011;45010;53.640;10.578;2023-08-31T15:32:52;1.27;;;0.50;;
59239;SDS011;45010;53.640;10.578;2023-08-31T15:36:03;1.58;;;0.73;;
59239;SDS011;45010;53.640;10.578;2023-08-31T15:39:05;0.90;;;0.45;;
59239;SDS011;45010;53.640;10.578;2023-08-31T15:42:05;2.15;;;0.50;;
59239;SDS011;45010;53.640;10.578;2023-08-31T15:45:06;2.50;;;0.52;;
59239;SDS011;45010;53.640;10.578;2023-08-31T15:48:06;1.60;;;0.40;;
59239;SDS011;45010;53.640;10.578;2023-08-31T15:51:07;1.63;;;0.40;;
59239;SDS011;45010;53.640;10.578;2023-08-31T15:54:07;3.08;;;0.98;;
59239;SDS011;45010;53.640;10.578;2023-08-31T15:57:07;0.43;;;0.30;;
59239;SDS011;45010;53.640;10.578;2023-08-31T16:00:08;1.98;;;0.50;;
59239;SDS011;45010;53.640;10.578;2023-08-31T16:03:08;0.40;;;0.40;;
59239;SDS011;45010;53.640;10.578;2023-08-31T16:06:10;1.23;;;0.50;;
59239;SDS011;45010;53.640;10.578;2023-08-31T16:09:13;1.77;;;0.70;;
59239;SDS011;45010;53.640;10.578;2023-08-31T16:12:13;3.67;;;0.73;;
59239;SDS011;45010;53.640;10.578;2023-08-31T16:15:13;2.30;;;0.77;;
59239;SDS011;45010;53.640;10.578;2023-08-31T16:18:14;1.60;;;0.60;;
59239;SDS011;45010;53.640;10.578;2023-08-31T16:21:14;1.67;;;0.40;;
59239;SDS011;45010;53.640;10.578;2023-08-31T16:24:15;2.30;;;0.50;;
59239;SDS011;45010;53.640;10.578;2023-08-31T16:27:15;1.73;;;0.60;;
59239;SDS011;45010;53.640;10.578;2023-08-31T16:30:16;3.15;;;0.70;;
59239;SDS011;45010;53.640;10.578;2023-08-31T16:33:16;2.58;;;0.50;;
59239;SDS011;45010;53.640;10.578;2023-08-31T16:36:17;2.20;;;0.50;;
59239;SDS011;45010;53.640;10.578;2023-08-31T16:39:17;1.58;;;0.52;;
59239;SDS011;45010;53.640;10.578;2023-08-31T16:42:20;2.85;;;0.60;;
59239;SDS011;45010;53.640;10.578;2023-08-31T16:45:20;1.13;;;0.63;;
59239;SDS011;45010;53.640;10.578;2023-08-31T16:48:21;2.92;;;0.70;;
59239;SDS011;45010;53.640;10.578;2023-08-31T16:51:22;4.68;;;0.88;;
59239;SDS011;45010;53.640;10.578;2023-08-31T16:54:22;2.55;;;0.47;;
59239;SDS011;45010;53.640;10.578;2023-08-31T16:57:25;7.22;;;1.00;;
59239;SDS011;45010;53.640;10.578;2023-08-31T17:00:26;3.47;;;0.70;;
59239;SDS011;45010;53.640;10.578;2023-08-31T17:03:26;5.15;;;0.57;;
59239;SDS011;45010;53.640;10.578;2023-08-31T17:06:26;2.72;;;0.57;;
59239;SDS011;45010;53.640;10.578;2023-08-31T17:09:28;3.35;;;0.70;;
59239;SDS011;45010;53.640;10.578;2023-08-31T17:12:29;2.08;;;0.47;;
59239;SDS011;45010;53.640;10.578;2023-08-31T17:15:32;4.28;;;1.08;;
59239;SDS011;45010;53.640;10.578;2023-08-31T17:18:32;3.65;;;0.70;;
59239;SDS011;45010;53.640;10.578;2023-08-31T17:21:32;1.92;;;0.40;;
59239;SDS011;45010;53.640;10.578;2023-08-31T17:24:33;1.65;;;0.47;;
59239;SDS011;45010;53.640;10.578;2023-08-31T17:27:33;2.90;;;0.60;;
59239;SDS011;45010;53.640;10.578;2023-08-31T17:30:34;1.73;;;0.55;;
59239;SDS011;45010;53.640;10.578;2023-08-31T17:33:35;0.65;;;0.40;;
59239;SDS011;45010;53.640;10.578;2023-08-31T17:36:36;1.90;;;0.70;;
59239;SDS011;45010;53.640;10.578;2023-08-31T17:39:36;0.75;;;0.57;;
59239;SDS011;45010;53.640;10.578;2023-08-31T17:42:37;1.63;;;0.45;;
59239;SDS011;45010;53.640;10.578;2023-08-31T17:45:40;2.47;;;0.50;;
59239;SDS011;45010;53.640;10.578;2023-08-31T17:48:40;1.40;;;0.40;;
59239;SDS011;45010;53.640;10.578;2023-08-31T17:51:44;1.73;;;0.47;;
59239;SDS011;45010;53.640;10.578;2023-08-31T17:54:45;3.22;;;0.60;;
59239;SDS011;45010;53.640;10.578;2023-08-31T17:57:46;1.45;;;0.70;;
59239;SDS011;45010;53.640;10.578;2023-08-31T18:00:46;1.75;;;0.70;;
59239;SDS011;45010;53.640;10.578;2023-08-31T18:03:47;1.70;;;0.50;;
59239;SDS011;45010;53.640;10.578;2023-08-31T18:06:49;1.95;;;0.40;;